sensor_id;sensor_type;location;lat;lon;timestamp;temperature;humidity
8527;DHT22;4301;48.362;8.478;2022-10-22T00:01:52;11.60;99.90
8527;DHT22;4301;48.362;8.478;2022-10-22T00:04:19;11.60;99.90
8527;DHT22;4301;48.362;8.478;2022-10-22T00:06:46;11.50;99.90
8527;DHT22;4301;48.362;8.478;2022-10-22T00:09:14;11.60;99.90
8527;DHT22;4301;48.362;8.478;2022-10-22T00:11:42;11.50;99.90
8527;DHT22;4301;48.362;8.478;2022-10-22T00:14:09;11.50;99.90
8527;DHT22;4301;48.362;8.478;2022-10-22T00:16:35;11.50;99.90
8527;DHT22;4301;48.362;8.478;2022-10-22T00:19:02;11.50;99.90
8527;DHT22;4301;48.362;8.478;2022-10-22T00:21:29;11.50;99.90
8527;DHT22;4301;48.362;8.478;2022-10-22T00:23:56;11.50;99.90
8527;DHT22;4301;48.362;8.478;2022-10-22T00:26:25;11.50;99.90
8527;DHT22;4301;48.362;8.478;2022-10-22T00:28:52;11.60;99.90
8527;DHT22;4301;48.362;8.478;2022-10-22T00:31:19;11.50;99.90
8527;DHT22;4301;48.362;8.478;2022-10-22T00:33:46;11.50;99.90
8527;DHT22;4301;48.362;8.478;2022-10-22T00:36:14;11.50;99.90
8527;DHT22;4301;48.362;8.478;2022-10-22T00:38:41;11.50;99.90
8527;DHT22;4301;48.362;8.478;2022-10-22T00:41:08;11.50;99.90
8527;DHT22;4301;48.362;8.478;2022-10-22T00:43:55;11.50;99.90
8527;DHT22;4301;48.362;8.478;2022-10-22T00:46:22;11.50;99.90
8527;DHT22;4301;48.362;8.478;2022-10-22T00:48:50;11.40;99.90
8527;DHT22;4301;48.362;8.478;2022-10-22T00:51:19;11.40;99.90
8527;DHT22;4301;48.362;8.478;2022-10-22T00:53:48;11.40;99.90
8527;DHT22;4301;48.362;8.478;2022-10-22T00:56:18;11.40;99.90
8527;DHT22;4301;48.362;8.478;2022-10-22T00:58:48;11.40;99.90
8527;DHT22;4301;48.362;8.478;2022-10-22T01:01:20;11.30;99.90
8527;DHT22;4301;48.362;8.478;2022-10-22T01:03:48;11.30;99.90
8527;DHT22;4301;48.362;8.478;2022-10-22T01:06:20;11.30;99.90
8527;DHT22;4301;48.362;8.478;2022-10-22T01:08:57;11.30;99.90
8527;DHT22;4301;48.362;8.478;2022-10-22T01:11:33;11.30;99.90
8527;DHT22;4301;48.362;8.478;2022-10-22T01:14:07;11.30;99.90
8527;DHT22;4301;48.362;8.478;2022-10-22T01:16:42;11.30;99.90
8527;DHT22;4301;48.362;8.478;2022-10-22T01:22:10;11.30;99.90
8527;DHT22;4301;48.362;8.478;2022-10-22T01:24:51;11.30;99.90
8527;DHT22;4301;48.362;8.478;2022-10-22T01:27:25;11.30;99.90
8527;DHT22;4301;48.362;8.478;2022-10-22T01:29:57;11.30;99.90
8527;DHT22;4301;48.362;8.478;2022-10-22T01:32:27;11.30;99.90
8527;DHT22;4301;48.362;8.478;2022-10-22T01:34:59;11.30;99.90
8527;DHT22;4301;48.362;8.478;2022-10-22T01:37:29;11.30;99.90
8527;DHT22;4301;48.362;8.478;2022-10-22T01:39:58;11.30;99.90
8527;DHT22;4301;48.362;8.478;2022-10-22T01:42:27;11.30;99.90
8527;DHT22;4301;48.362;8.478;2022-10-22T01:44:55;11.30;99.90
8527;DHT22;4301;48.362;8.478;2022-10-22T01:47:33;11.30;99.90
8527;DHT22;4301;48.362;8.478;2022-10-22T01:50:26;11.30;99.90
8527;DHT22;4301;48.362;8.478;2022-10-22T01:53:15;11.30;99.90
8527;DHT22;4301;48.362;8.478;2022-10-22T01:55:54;11.30;99.90
8527;DHT22;4301;48.362;8.478;2022-10-22T01:58:32;11.30;99.90
8527;DHT22;4301;48.362;8.478;2022-10-22T02:01:07;11.30;99.90
8527;DHT22;4301;48.362;8.478;2022-10-22T02:03:39;11.30;99.90
8527;DHT22;4301;48.362;8.478;2022-10-22T02:06:12;11.30;99.90
8527;DHT22;4301;48.362;8.478;2022-10-22T02:08:40;11.30;99.90
8527;DHT22;4301;48.362;8.478;2022-10-22T02:11:11;11.30;99.90
8527;DHT22;4301;48.362;8.478;2022-10-22T02:13:41;11.30;99.90
8527;DHT22;4301;48.362;8.478;2022-10-22T02:16:12;11.30;99.90
8527;DHT22;4301;48.362;8.478;2022-10-22T02:18:44;11.30;99.90
8527;DHT22;4301;48.362;8.478;2022-10-22T02:21:13;11.30;99.90
8527;DHT22;4301;48.362;8.478;2022-10-22T02:23:40;11.30;99.90
8527;DHT22;4301;48.362;8.478;2022-10-22T02:26:13;11.30;99.90
8527;DHT22;4301;48.362;8.478;2022-10-22T02:28:47;11.30;99.90
8527;DHT22;4301;48.362;8.478;2022-10-22T02:31:19;11.30;99.90
8527;DHT22;4301;48.362;8.478;2022-10-22T02:33:50;11.30;99.90
8527;DHT22;4301;48.362;8.478;2022-10-22T02:36:19;11.30;99.90
8527;DHT22;4301;48.362;8.478;2022-10-22T02:38:48;11.30;99.90
8527;DHT22;4301;48.362;8.478;2022-10-22T02:41:17;11.30;99.90
8527;DHT22;4301;48.362;8.478;2022-10-22T02:43:48;11.30;99.90
8527;DHT22;4301;48.362;8.478;2022-10-22T02:46:17;11.30;99.90
8527;DHT22;4301;48.362;8.478;2022-10-22T02:48:44;11.30;99.90
8527;DHT22;4301;48.362;8.478;2022-10-22T02:51:11;11.20;99.90
8527;DHT22;4301;48.362;8.478;2022-10-22T02:53:38;11.20;99.90
8527;DHT22;4301;48.362;8.478;2022-10-22T02:56:06;11.20;99.90
8527;DHT22;4301;48.362;8.478;2022-10-22T02:58:33;11.20;99.90
8527;DHT22;4301;48.362;8.478;2022-10-22T03:01:00;11.20;99.90
8527;DHT22;4301;48.362;8.478;2022-10-22T03:03:28;11.10;99.90
8527;DHT22;4301;48.362;8.478;2022-10-22T03:05:55;11.10;99.90
8527;DHT22;4301;48.362;8.478;2022-10-22T03:08:22;11.10;99.90
8527;DHT22;4301;48.362;8.478;2022-10-22T03:10:49;11.10;99.90
8527;DHT22;4301;48.362;8.478;2022-10-22T03:13:16;11.00;99.90
8527;DHT22;4301;48.362;8.478;2022-10-22T03:15:43;11.00;99.90
8527;DHT22;4301;48.362;8.478;2022-10-22T03:18:10;11.00;99.90
8527;DHT22;4301;48.362;8.478;2022-10-22T03:20:38;11.00;99.90
8527;DHT22;4301;48.362;8.478;2022-10-22T03:23:05;11.00;99.90
8527;DHT22;4301;48.362;8.478;2022-10-22T03:25:33;10.90;99.90
8527;DHT22;4301;48.362;8.478;2022-10-22T03:28:02;10.90;99.90
8527;DHT22;4301;48.362;8.478;2022-10-22T03:30:30;10.90;99.90
8527;DHT22;4301;48.362;8.478;2022-10-22T03:32:58;11.00;99.90
8527;DHT22;4301;48.362;8.478;2022-10-22T03:35:25;11.00;99.90
8527;DHT22;4301;48.362;8.478;2022-10-22T03:37:53;11.00;99.90
8527;DHT22;4301;48.362;8.478;2022-10-22T03:40:21;11.00;99.90
8527;DHT22;4301;48.362;8.478;2022-10-22T03:42:48;11.00;99.90
8527;DHT22;4301;48.362;8.478;2022-10-22T03:45:15;11.00;99.90
8527;DHT22;4301;48.362;8.478;2022-10-22T03:47:42;11.00;99.90
8527;DHT22;4301;48.362;8.478;2022-10-22T03:50:09;11.00;99.90
8527;DHT22;4301;48.362;8.478;2022-10-22T03:52:38;11.00;99.90
8527;DHT22;4301;48.362;8.478;2022-10-22T03:55:08;11.00;99.90
8527;DHT22;4301;48.362;8.478;2022-10-22T03:57:35;11.00;99.90
8527;DHT22;4301;48.362;8.478;2022-10-22T04:00:04;11.00;99.90
8527;DHT22;4301;48.362;8.478;2022-10-22T04:02:31;10.90;99.90
8527;DHT22;4301;48.362;8.478;2022-10-22T04:04:58;10.90;99.90
8527;DHT22;4301;48.362;8.478;2022-10-22T04:07:25;10.90;99.90
8527;DHT22;4301;48.362;8.478;2022-10-22T04:09:52;10.90;99.90
8527;DHT22;4301;48.362;8.478;2022-10-22T04:12:20;10.90;99.90
8527;DHT22;4301;48.362;8.478;2022-10-22T04:14:47;10.80;99.90
8527;DHT22;4301;48.362;8.478;2022-10-22T04:17:14;10.90;99.90
8527;DHT22;4301;48.362;8.478;2022-10-22T04:19:41;10.80;99.90
8527;DHT22;4301;48.362;8.478;2022-10-22T04:22:08;10.80;99.90
8527;DHT22;4301;48.362;8.478;2022-10-22T04:24:35;10.80;99.90
8527;DHT22;4301;48.362;8.478;2022-10-22T04:27:02;10.80;99.90
8527;DHT22;4301;48.362;8.478;2022-10-22T04:29:31;10.80;99.90
8527;DHT22;4301;48.362;8.478;2022-10-22T04:31:57;10.80;99.90
8527;DHT22;4301;48.362;8.478;2022-10-22T04:34:26;10.80;99.90
8527;DHT22;4301;48.362;8.478;2022-10-22T04:36:54;10.80;99.90
8527;DHT22;4301;48.362;8.478;2022-10-22T04:39:21;10.80;99.90
8527;DHT22;4301;48.362;8.478;2022-10-22T04:41:48;10.70;99.90
8527;DHT22;4301;48.362;8.478;2022-10-22T04:44:15;10.70;99.90
8527;DHT22;4301;48.362;8.478;2022-10-22T04:46:43;10.60;99.90
8527;DHT22;4301;48.362;8.478;2022-10-22T04:49:10;10.50;99.90
8527;DHT22;4301;48.362;8.478;2022-10-22T04:51:37;10.50;99.90
8527;DHT22;4301;48.362;8.478;2022-10-22T04:54:04;10.50;99.90
8527;DHT22;4301;48.362;8.478;2022-10-22T04:56:32;10.40;99.90
8527;DHT22;4301;48.362;8.478;2022-10-22T04:59:00;10.30;99.90
8527;DHT22;4301;48.362;8.478;2022-10-22T05:01:29;10.30;99.90
8527;DHT22;4301;48.362;8.478;2022-10-22T05:04:00;10.20;99.90
8527;DHT22;4301;48.362;8.478;2022-10-22T05:06:28;10.10;99.90
8527;DHT22;4301;48.362;8.478;2022-10-22T05:08:56;10.10;99.90
8527;DHT22;4301;48.362;8.478;2022-10-22T05:11:26;10.00;99.90
8527;DHT22;4301;48.362;8.478;2022-10-22T05:13:54;10.00;99.90
8527;DHT22;4301;48.362;8.478;2022-10-22T05:16:21;10.10;99.90
8527;DHT22;4301;48.362;8.478;2022-10-22T05:18:48;10.00;99.90
8527;DHT22;4301;48.362;8.478;2022-10-22T05:21:19;10.00;99.90
8527;DHT22;4301;48.362;8.478;2022-10-22T05:23:48;10.00;99.90
8527;DHT22;4301;48.362;8.478;2022-10-22T05:26:17;9.90;99.90
8527;DHT22;4301;48.362;8.478;2022-10-22T05:28:45;10.00;99.90
8527;DHT22;4301;48.362;8.478;2022-10-22T05:31:13;10.00;99.90
8527;DHT22;4301;48.362;8.478;2022-10-22T05:33:40;10.00;99.90
8527;DHT22;4301;48.362;8.478;2022-10-22T05:36:11;10.00;99.90
8527;DHT22;4301;48.362;8.478;2022-10-22T05:38:39;10.10;99.90
8527;DHT22;4301;48.362;8.478;2022-10-22T05:41:08;10.10;99.90
8527;DHT22;4301;48.362;8.478;2022-10-22T05:43:35;10.10;99.90
8527;DHT22;4301;48.362;8.478;2022-10-22T05:46:05;10.10;99.90
8527;DHT22;4301;48.362;8.478;2022-10-22T05:48:32;10.10;99.90
8527;DHT22;4301;48.362;8.478;2022-10-22T05:51:01;10.10;99.90
8527;DHT22;4301;48.362;8.478;2022-10-22T05:53:30;10.10;99.90
8527;DHT22;4301;48.362;8.478;2022-10-22T05:56:00;10.20;99.90
8527;DHT22;4301;48.362;8.478;2022-10-22T05:58:27;10.10;99.90
8527;DHT22;4301;48.362;8.478;2022-10-22T06:01:00;10.20;99.90
8527;DHT22;4301;48.362;8.478;2022-10-22T06:03:27;10.20;99.90
8527;DHT22;4301;48.362;8.478;2022-10-22T06:05:54;10.20;99.90
8527;DHT22;4301;48.362;8.478;2022-10-22T06:08:21;10.20;99.90
8527;DHT22;4301;48.362;8.478;2022-10-22T06:10:48;10.20;99.90
8527;DHT22;4301;48.362;8.478;2022-10-22T06:13:16;10.20;99.90
8527;DHT22;4301;48.362;8.478;2022-10-22T06:15:43;10.20;99.90
8527;DHT22;4301;48.362;8.478;2022-10-22T06:18:10;10.30;99.90
8527;DHT22;4301;48.362;8.478;2022-10-22T06:20:37;10.30;99.90
8527;DHT22;4301;48.362;8.478;2022-10-22T06:23:04;10.40;99.90
8527;DHT22;4301;48.362;8.478;2022-10-22T06:25:31;10.40;99.90
8527;DHT22;4301;48.362;8.478;2022-10-22T06:27:58;10.40;99.90
8527;DHT22;4301;48.362;8.478;2022-10-22T06:30:26;10.50;99.90
8527;DHT22;4301;48.362;8.478;2022-10-22T06:32:53;10.50;99.90
8527;DHT22;4301;48.362;8.478;2022-10-22T06:35:20;10.50;99.90
8527;DHT22;4301;48.362;8.478;2022-10-22T06:37:47;10.50;99.90
8527;DHT22;4301;48.362;8.478;2022-10-22T06:40:14;10.50;99.90
8527;DHT22;4301;48.362;8.478;2022-10-22T06:42:41;10.50;99.90
8527;DHT22;4301;48.362;8.478;2022-10-22T06:45:09;10.50;99.90
8527;DHT22;4301;48.362;8.478;2022-10-22T06:47:37;10.60;99.90
8527;DHT22;4301;48.362;8.478;2022-10-22T06:50:05;10.60;99.90
8527;DHT22;4301;48.362;8.478;2022-10-22T06:52:32;10.60;99.90
8527;DHT22;4301;48.362;8.478;2022-10-22T06:54:59;10.70;99.90
8527;DHT22;4301;48.362;8.478;2022-10-22T06:57:26;10.70;99.90
8527;DHT22;4301;48.362;8.478;2022-10-22T06:59:53;10.80;99.90
8527;DHT22;4301;48.362;8.478;2022-10-22T07:02:20;10.80;99.90
8527;DHT22;4301;48.362;8.478;2022-10-22T07:04:48;10.90;99.90
8527;DHT22;4301;48.362;8.478;2022-10-22T07:07:15;10.90;99.90
8527;DHT22;4301;48.362;8.478;2022-10-22T07:09:42;11.00;99.90
8527;DHT22;4301;48.362;8.478;2022-10-22T07:12:11;11.00;99.90
8527;DHT22;4301;48.362;8.478;2022-10-22T07:14:39;11.00;99.90
8527;DHT22;4301;48.362;8.478;2022-10-22T07:17:06;11.00;99.90
8527;DHT22;4301;48.362;8.478;2022-10-22T07:19:32;11.10;99.90
8527;DHT22;4301;48.362;8.478;2022-10-22T07:22:01;11.10;99.90
8527;DHT22;4301;48.362;8.478;2022-10-22T07:24:28;11.10;99.90
8527;DHT22;4301;48.362;8.478;2022-10-22T07:26:55;11.00;99.90
8527;DHT22;4301;48.362;8.478;2022-10-22T07:29:22;11.00;99.90
8527;DHT22;4301;48.362;8.478;2022-10-22T07:31:49;10.90;99.90
8527;DHT22;4301;48.362;8.478;2022-10-22T07:34:16;10.90;99.90
8527;DHT22;4301;48.362;8.478;2022-10-22T07:36:43;11.00;99.90
8527;DHT22;4301;48.362;8.478;2022-10-22T07:39:11;11.20;99.90
8527;DHT22;4301;48.362;8.478;2022-10-22T07:41:38;11.50;99.90
8527;DHT22;4301;48.362;8.478;2022-10-22T07:44:05;11.80;99.90
8527;DHT22;4301;48.362;8.478;2022-10-22T07:46:32;12.20;99.90
8527;DHT22;4301;48.362;8.478;2022-10-22T07:48:59;12.50;99.90
8527;DHT22;4301;48.362;8.478;2022-10-22T07:51:26;12.90;99.90
8527;DHT22;4301;48.362;8.478;2022-10-22T07:53:53;13.50;99.90
8527;DHT22;4301;48.362;8.478;2022-10-22T07:56:21;14.00;99.90
8527;DHT22;4301;48.362;8.478;2022-10-22T07:58:48;14.60;99.90
8527;DHT22;4301;48.362;8.478;2022-10-22T08:01:15;15.20;99.90
8527;DHT22;4301;48.362;8.478;2022-10-22T08:03:43;15.70;99.90
8527;DHT22;4301;48.362;8.478;2022-10-22T08:06:12;16.50;99.90
8527;DHT22;4301;48.362;8.478;2022-10-22T08:08:39;17.00;99.90
8527;DHT22;4301;48.362;8.478;2022-10-22T08:11:09;17.70;99.90
8527;DHT22;4301;48.362;8.478;2022-10-22T08:13:37;17.40;99.90
8527;DHT22;4301;48.362;8.478;2022-10-22T08:16:05;17.60;99.90
8527;DHT22;4301;48.362;8.478;2022-10-22T08:18:32;18.10;99.90
8527;DHT22;4301;48.362;8.478;2022-10-22T08:20:59;18.60;99.90
8527;DHT22;4301;48.362;8.478;2022-10-22T08:23:26;18.90;99.90
8527;DHT22;4301;48.362;8.478;2022-10-22T08:25:53;19.20;99.90
8527;DHT22;4301;48.362;8.478;2022-10-22T08:28:20;19.70;99.90
8527;DHT22;4301;48.362;8.478;2022-10-22T08:30:48;19.90;99.90
8527;DHT22;4301;48.362;8.478;2022-10-22T08:33:15;20.50;99.90
8527;DHT22;4301;48.362;8.478;2022-10-22T08:35:46;20.80;99.90
8527;DHT22;4301;48.362;8.478;2022-10-22T08:38:13;21.50;99.90
8527;DHT22;4301;48.362;8.478;2022-10-22T08:40:41;21.20;99.90
8527;DHT22;4301;48.362;8.478;2022-10-22T08:43:53;21.40;99.90
8527;DHT22;4301;48.362;8.478;2022-10-22T08:46:35;21.50;99.90
8527;DHT22;4301;48.362;8.478;2022-10-22T08:49:10;22.30;99.90
8527;DHT22;4301;48.362;8.478;2022-10-22T08:51:38;22.20;99.90
8527;DHT22;4301;48.362;8.478;2022-10-22T08:54:22;22.40;99.90
8527;DHT22;4301;48.362;8.478;2022-10-22T08:59:41;22.80;99.90
8527;DHT22;4301;48.362;8.478;2022-10-22T09:02:24;22.60;99.90
8527;DHT22;4301;48.362;8.478;2022-10-22T09:05:01;22.10;99.90
8527;DHT22;4301;48.362;8.478;2022-10-22T09:07:30;22.10;99.90
8527;DHT22;4301;48.362;8.478;2022-10-22T09:09:58;21.60;99.90
8527;DHT22;4301;48.362;8.478;2022-10-22T09:12:27;22.20;99.90
8527;DHT22;4301;48.362;8.478;2022-10-22T09:14:54;22.30;99.90
8527;DHT22;4301;48.362;8.478;2022-10-22T09:17:27;22.70;99.90
8527;DHT22;4301;48.362;8.478;2022-10-22T09:20:03;22.60;99.90
8527;DHT22;4301;48.362;8.478;2022-10-22T09:22:37;22.80;99.90
8527;DHT22;4301;48.362;8.478;2022-10-22T09:25:15;23.20;99.90
8527;DHT22;4301;48.362;8.478;2022-10-22T09:27:43;23.90;99.90
8527;DHT22;4301;48.362;8.478;2022-10-22T09:30:15;24.20;99.90
8527;DHT22;4301;48.362;8.478;2022-10-22T09:32:44;24.00;99.90
8527;DHT22;4301;48.362;8.478;2022-10-22T09:35:12;24.00;99.90
8527;DHT22;4301;48.362;8.478;2022-10-22T09:37:47;24.20;99.90
8527;DHT22;4301;48.362;8.478;2022-10-22T09:40:15;24.70;99.90
8527;DHT22;4301;48.362;8.478;2022-10-22T09:42:44;25.40;99.90
8527;DHT22;4301;48.362;8.478;2022-10-22T09:45:17;25.50;99.90
8527;DHT22;4301;48.362;8.478;2022-10-22T09:47:46;25.40;99.90
8527;DHT22;4301;48.362;8.478;2022-10-22T09:50:24;24.70;99.90
8527;DHT22;4301;48.362;8.478;2022-10-22T09:52:59;25.30;99.90
8527;DHT22;4301;48.362;8.478;2022-10-22T09:55:27;25.60;99.90
8527;DHT22;4301;48.362;8.478;2022-10-22T09:57:54;25.50;99.90
8527;DHT22;4301;48.362;8.478;2022-10-22T10:00:22;26.60;99.90
8527;DHT22;4301;48.362;8.478;2022-10-22T10:02:55;25.70;99.90
8527;DHT22;4301;48.362;8.478;2022-10-22T10:05:28;26.00;99.90
8527;DHT22;4301;48.362;8.478;2022-10-22T10:07:56;25.60;99.90
8527;DHT22;4301;48.362;8.478;2022-10-22T10:10:33;25.10;99.90
8527;DHT22;4301;48.362;8.478;2022-10-22T10:13:14;24.90;99.90
8527;DHT22;4301;48.362;8.478;2022-10-22T10:15:48;25.20;99.90
8527;DHT22;4301;48.362;8.478;2022-10-22T10:18:25;25.70;99.90
8527;DHT22;4301;48.362;8.478;2022-10-22T10:21:01;25.70;99.90
8527;DHT22;4301;48.362;8.478;2022-10-22T10:23:34;26.20;99.90
8527;DHT22;4301;48.362;8.478;2022-10-22T10:26:07;25.80;99.90
8527;DHT22;4301;48.362;8.478;2022-10-22T10:28:49;25.70;99.90
8527;DHT22;4301;48.362;8.478;2022-10-22T10:31:24;25.00;99.90
8527;DHT22;4301;48.362;8.478;2022-10-22T10:33:59;25.00;99.90
8527;DHT22;4301;48.362;8.478;2022-10-22T10:36:37;25.60;99.90
8527;DHT22;4301;48.362;8.478;2022-10-22T10:39:09;25.70;99.90
8527;DHT22;4301;48.362;8.478;2022-10-22T10:41:43;26.40;99.90
8527;DHT22;4301;48.362;8.478;2022-10-22T10:44:49;26.40;99.90
8527;DHT22;4301;48.362;8.478;2022-10-22T10:47:31;26.30;99.90
8527;DHT22;4301;48.362;8.478;2022-10-22T10:50:16;26.50;99.90
8527;DHT22;4301;48.362;8.478;2022-10-22T10:52:52;26.90;99.60
8527;DHT22;4301;48.362;8.478;2022-10-22T10:55:26;27.40;98.90
8527;DHT22;4301;48.362;8.478;2022-10-22T10:58:02;27.40;98.20
8527;DHT22;4301;48.362;8.478;2022-10-22T11:00:35;27.20;97.50
8527;DHT22;4301;48.362;8.478;2022-10-22T11:05:59;27.70;94.80
8527;DHT22;4301;48.362;8.478;2022-10-22T11:08:29;28.00;92.20
8527;DHT22;4301;48.362;8.478;2022-10-22T11:11:00;28.20;92.10
8527;DHT22;4301;48.362;8.478;2022-10-22T11:13:32;28.10;91.00
8527;DHT22;4301;48.362;8.478;2022-10-22T11:16:04;27.60;91.40
8527;DHT22;4301;48.362;8.478;2022-10-22T11:18:37;27.00;92.10
8527;DHT22;4301;48.362;8.478;2022-10-22T11:21:21;27.10;92.00
8527;DHT22;4301;48.362;8.478;2022-10-22T11:23:54;27.60;88.70
8527;DHT22;4301;48.362;8.478;2022-10-22T11:26:33;28.00;89.70
8527;DHT22;4301;48.362;8.478;2022-10-22T11:29:02;28.50;89.20
8527;DHT22;4301;48.362;8.478;2022-10-22T11:31:31;28.20;87.50
8527;DHT22;4301;48.362;8.478;2022-10-22T11:34:04;28.40;87.10
8527;DHT22;4301;48.362;8.478;2022-10-22T11:36:34;28.50;85.70
8527;DHT22;4301;48.362;8.478;2022-10-22T11:39:02;28.30;86.30
8527;DHT22;4301;48.362;8.478;2022-10-22T11:41:32;28.30;86.30
8527;DHT22;4301;48.362;8.478;2022-10-22T11:44:08;28.00;87.80
8527;DHT22;4301;48.362;8.478;2022-10-22T11:46:44;28.00;87.40
8527;DHT22;4301;48.362;8.478;2022-10-22T11:49:19;28.40;86.60
8527;DHT22;4301;48.362;8.478;2022-10-22T11:51:50;28.00;83.20
8527;DHT22;4301;48.362;8.478;2022-10-22T11:54:38;26.10;86.40
8527;DHT22;4301;48.362;8.478;2022-10-22T11:57:19;25.90;89.50
8527;DHT22;4301;48.362;8.478;2022-10-22T11:59:52;27.00;87.30
8527;DHT22;4301;48.362;8.478;2022-10-22T12:02:47;26.40;88.10
8527;DHT22;4301;48.362;8.478;2022-10-22T12:05:35;27.40;85.30
8527;DHT22;4301;48.362;8.478;2022-10-22T12:08:24;27.30;85.40
8527;DHT22;4301;48.362;8.478;2022-10-22T12:11:03;27.90;83.70
8527;DHT22;4301;48.362;8.478;2022-10-22T12:13:33;28.00;81.50
8527;DHT22;4301;48.362;8.478;2022-10-22T12:16:17;29.20;80.90
8527;DHT22;4301;48.362;8.478;2022-10-22T12:18:45;29.40;78.40
8527;DHT22;4301;48.362;8.478;2022-10-22T12:21:13;28.90;77.70
8527;DHT22;4301;48.362;8.478;2022-10-22T12:23:42;28.30;79.00
8527;DHT22;4301;48.362;8.478;2022-10-22T12:26:23;28.50;77.60
8527;DHT22;4301;48.362;8.478;2022-10-22T12:28:50;28.40;79.60
8527;DHT22;4301;48.362;8.478;2022-10-22T12:31:17;28.80;77.60
8527;DHT22;4301;48.362;8.478;2022-10-22T12:33:44;27.80;79.90
8527;DHT22;4301;48.362;8.478;2022-10-22T12:36:17;28.30;80.40
8527;DHT22;4301;48.362;8.478;2022-10-22T12:38:46;28.60;79.40
8527;DHT22;4301;48.362;8.478;2022-10-22T12:41:13;28.90;79.10
8527;DHT22;4301;48.362;8.478;2022-10-22T12:43:40;28.00;80.90
8527;DHT22;4301;48.362;8.478;2022-10-22T12:46:11;28.10;75.50
8527;DHT22;4301;48.362;8.478;2022-10-22T12:48:40;28.80;71.50
8527;DHT22;4301;48.362;8.478;2022-10-22T12:51:10;28.50;73.00
8527;DHT22;4301;48.362;8.478;2022-10-22T12:53:46;29.00;74.00
8527;DHT22;4301;48.362;8.478;2022-10-22T12:56:16;27.90;71.90
8527;DHT22;4301;48.362;8.478;2022-10-22T12:58:55;27.80;70.50
8527;DHT22;4301;48.362;8.478;2022-10-22T13:01:24;27.60;68.30
8527;DHT22;4301;48.362;8.478;2022-10-22T13:04:04;28.40;69.70
8527;DHT22;4301;48.362;8.478;2022-10-22T13:06:33;28.00;70.10
8527;DHT22;4301;48.362;8.478;2022-10-22T13:09:15;28.30;70.40
8527;DHT22;4301;48.362;8.478;2022-10-22T13:11:50;27.90;72.30
8527;DHT22;4301;48.362;8.478;2022-10-22T13:14:26;27.90;69.90
8527;DHT22;4301;48.362;8.478;2022-10-22T13:17:08;28.20;70.30
8527;DHT22;4301;48.362;8.478;2022-10-22T13:19:38;28.10;70.70
8527;DHT22;4301;48.362;8.478;2022-10-22T13:22:22;28.30;70.70
8527;DHT22;4301;48.362;8.478;2022-10-22T13:24:51;28.70;70.60
8527;DHT22;4301;48.362;8.478;2022-10-22T13:27:19;28.80;70.50
8527;DHT22;4301;48.362;8.478;2022-10-22T13:29:46;29.10;71.70
8527;DHT22;4301;48.362;8.478;2022-10-22T13:32:26;29.40;70.20
8527;DHT22;4301;48.362;8.478;2022-10-22T13:34:56;29.90;70.00
8527;DHT22;4301;48.362;8.478;2022-10-22T13:37:23;29.90;69.80
8527;DHT22;4301;48.362;8.478;2022-10-22T13:39:52;28.90;70.90
8527;DHT22;4301;48.362;8.478;2022-10-22T13:42:19;28.40;69.90
8527;DHT22;4301;48.362;8.478;2022-10-22T13:44:46;28.80;70.50
8527;DHT22;4301;48.362;8.478;2022-10-22T13:47:23;29.10;70.00
8527;DHT22;4301;48.362;8.478;2022-10-22T13:49:51;28.80;70.00
8527;DHT22;4301;48.362;8.478;2022-10-22T13:52:28;29.10;68.30
8527;DHT22;4301;48.362;8.478;2022-10-22T13:54:58;29.80;67.60
8527;DHT22;4301;48.362;8.478;2022-10-22T13:57:25;29.40;68.50
8527;DHT22;4301;48.362;8.478;2022-10-22T13:59:52;28.90;69.60
8527;DHT22;4301;48.362;8.478;2022-10-22T14:02:19;29.10;69.70
8527;DHT22;4301;48.362;8.478;2022-10-22T14:04:49;28.90;71.10
8527;DHT22;4301;48.362;8.478;2022-10-22T14:07:17;28.80;68.50
8527;DHT22;4301;48.362;8.478;2022-10-22T14:09:44;28.10;68.90
8527;DHT22;4301;48.362;8.478;2022-10-22T14:12:14;28.20;69.90
8527;DHT22;4301;48.362;8.478;2022-10-22T14:14:42;28.40;69.50
8527;DHT22;4301;48.362;8.478;2022-10-22T14:17:13;28.10;71.00
8527;DHT22;4301;48.362;8.478;2022-10-22T14:19:42;28.30;71.90
8527;DHT22;4301;48.362;8.478;2022-10-22T14:22:13;28.50;69.70
8527;DHT22;4301;48.362;8.478;2022-10-22T14:24:40;28.30;70.30
8527;DHT22;4301;48.362;8.478;2022-10-22T14:27:10;28.10;69.10
8527;DHT22;4301;48.362;8.478;2022-10-22T14:29:39;27.40;69.20
8527;DHT22;4301;48.362;8.478;2022-10-22T14:32:11;26.70;70.60
8527;DHT22;4301;48.362;8.478;2022-10-22T14:34:39;25.90;72.70
8527;DHT22;4301;48.362;8.478;2022-10-22T14:37:15;25.30;74.80
8527;DHT22;4301;48.362;8.478;2022-10-22T14:39:44;25.50;76.70
8527;DHT22;4301;48.362;8.478;2022-10-22T14:42:16;25.90;77.60
8527;DHT22;4301;48.362;8.478;2022-10-22T14:44:44;26.10;76.10
8527;DHT22;4301;48.362;8.478;2022-10-22T14:47:11;26.80;73.70
8527;DHT22;4301;48.362;8.478;2022-10-22T14:49:38;26.80;78.20
8527;DHT22;4301;48.362;8.478;2022-10-22T14:52:05;26.60;76.70
8527;DHT22;4301;48.362;8.478;2022-10-22T14:54:32;26.50;76.40
8527;DHT22;4301;48.362;8.478;2022-10-22T14:57:00;26.30;80.10
8527;DHT22;4301;48.362;8.478;2022-10-22T14:59:28;26.30;80.80
8527;DHT22;4301;48.362;8.478;2022-10-22T15:01:56;25.90;83.50
8527;DHT22;4301;48.362;8.478;2022-10-22T15:04:23;25.90;84.80
8527;DHT22;4301;48.362;8.478;2022-10-22T15:06:51;25.40;87.00
8527;DHT22;4301;48.362;8.478;2022-10-22T15:09:21;24.90;88.70
8527;DHT22;4301;48.362;8.478;2022-10-22T15:11:49;24.60;90.40
8527;DHT22;4301;48.362;8.478;2022-10-22T15:14:16;24.20;90.90
8527;DHT22;4301;48.362;8.478;2022-10-22T15:16:43;23.70;91.50
8527;DHT22;4301;48.362;8.478;2022-10-22T15:19:12;23.30;92.80
8527;DHT22;4301;48.362;8.478;2022-10-22T15:21:40;22.80;94.50
8527;DHT22;4301;48.362;8.478;2022-10-22T15:24:07;22.50;96.10
8527;DHT22;4301;48.362;8.478;2022-10-22T15:26:34;22.10;98.50
8527;DHT22;4301;48.362;8.478;2022-10-22T15:29:02;21.50;99.90
8527;DHT22;4301;48.362;8.478;2022-10-22T15:31:51;20.70;99.90
8527;DHT22;4301;48.362;8.478;2022-10-22T15:34:21;19.70;99.90
8527;DHT22;4301;48.362;8.478;2022-10-22T15:36:49;19.10;99.90
8527;DHT22;4301;48.362;8.478;2022-10-22T15:39:16;18.70;99.90
8527;DHT22;4301;48.362;8.478;2022-10-22T15:41:43;18.50;99.90
8527;DHT22;4301;48.362;8.478;2022-10-22T15:44:15;18.00;99.90
8527;DHT22;4301;48.362;8.478;2022-10-22T15:46:42;17.60;99.90
8527;DHT22;4301;48.362;8.478;2022-10-22T15:49:09;17.50;99.90
8527;DHT22;4301;48.362;8.478;2022-10-22T15:51:37;17.50;99.90
8527;DHT22;4301;48.362;8.478;2022-10-22T15:54:05;17.30;99.90
8527;DHT22;4301;48.362;8.478;2022-10-22T15:56:32;17.00;99.90
8527;DHT22;4301;48.362;8.478;2022-10-22T15:59:00;16.70;99.90
8527;DHT22;4301;48.362;8.478;2022-10-22T16:01:29;16.30;99.90
8527;DHT22;4301;48.362;8.478;2022-10-22T16:03:56;16.00;99.90
8527;DHT22;4301;48.362;8.478;2022-10-22T16:06:27;15.70;99.90
8527;DHT22;4301;48.362;8.478;2022-10-22T16:08:58;15.50;99.90
8527;DHT22;4301;48.362;8.478;2022-10-22T16:11:26;15.40;99.90
8527;DHT22;4301;48.362;8.478;2022-10-22T16:13:54;15.10;99.90
8527;DHT22;4301;48.362;8.478;2022-10-22T16:16:22;14.90;99.90
8527;DHT22;4301;48.362;8.478;2022-10-22T16:18:49;14.80;99.90
8527;DHT22;4301;48.362;8.478;2022-10-22T16:21:16;14.80;99.90
8527;DHT22;4301;48.362;8.478;2022-10-22T16:23:44;14.40;99.90
8527;DHT22;4301;48.362;8.478;2022-10-22T16:26:13;14.20;99.90
8527;DHT22;4301;48.362;8.478;2022-10-22T16:28:41;14.00;99.90
8527;DHT22;4301;48.362;8.478;2022-10-22T16:31:10;13.90;99.90